Aviation Digital Data Service (ADDS)

Output produced by METARs form (0914 UTC 24 March 2019)
found at http://www.aviationweather.gov/metar/data/
 
METAR text: RJOO 240900Z 21005KT 150V260 9999 FEW030 10/00 Q1018
Conditions at: RJOO (OSAKA INTL/ITAMI, JP) observed 0900 UTC 24 March 2019
Temperature: 10.0°C (50°F)
Dewpoint: 0.0°C (32°F) [RH = 50%]
Pressure (altimeter): 30.06 inches Hg (1018.0 mb)
Winds: from the SSW (210 degrees) at 6 MPH (5 knots; 2.6 m/s)
Visibility: 6 or more miles (10+ km)
Ceiling: at least 12,000 feet AGL
Clouds: few clouds at 3000 feet AGL
Weather: no significant weather observed at this time

METAR text: RJOO 240800Z 20005KT 130V280 9999 FEW030 SCT070 10/00 Q1018 RMK 1CU030 3AC070 A3006
Conditions at: RJOO (OSAKA INTL/ITAMI, JP) observed 0800 UTC 24 March 2019
Temperature: 10.0°C (50°F)
Dewpoint: 0.0°C (32°F) [RH = 50%]
Pressure (altimeter): 30.06 inches Hg (1018.0 mb)
Winds: from the SSW (200 degrees) at 6 MPH (5 knots; 2.6 m/s)
Visibility: 6 or more miles (10+ km)
Ceiling: at least 12,000 feet AGL
Clouds: few clouds at 3000 feet AGL
scattered clouds at 7000 feet AGL
Weather: no significant weather observed at this time

METAR text: RJOO 240700Z 21007KT 180V250 9999 FEW030 BKN070 10/01 Q1018 RMK 1CU030 5AC070 A3006
Conditions at: RJOO (OSAKA INTL/ITAMI, JP) observed 0700 UTC 24 March 2019
Temperature: 10.0°C (50°F)
Dewpoint: 1.0°C (34°F) [RH = 53%]
Pressure (altimeter): 30.06 inches Hg (1018.0 mb)
Winds: from the SSW (210 degrees) at 8 MPH (7 knots; 3.6 m/s)
Visibility: 6 or more miles (10+ km)
Ceiling: 7000 feet AGL
Clouds: few clouds at 3000 feet AGL
broken clouds at 7000 feet AGL
Weather: no significant weather observed at this time

METAR text: RJOO 240600Z 23008KT 200V270 9999 FEW030 SCT045 BKN070 11/01 Q1018 RMK 1CU030 3CU045 5AC070 A3006
Conditions at: RJOO (OSAKA INTL/ITAMI, JP) observed 0600 UTC 24 March 2019
Temperature: 11.0°C (52°F)
Dewpoint: 1.0°C (34°F) [RH = 50%]
Pressure (altimeter): 30.06 inches Hg (1018.0 mb)
Winds: from the SW (230 degrees) at 9 MPH (8 knots; 4.1 m/s)
Visibility: 6 or more miles (10+ km)
Ceiling: 7000 feet AGL
Clouds: few clouds at 3000 feet AGL
scattered clouds at 4500 feet AGL
broken clouds at 7000 feet AGL
Weather: no significant weather observed at this time

METAR text: RJOO 240500Z 25007KT 180V310 9999 FEW030 SCT070 12/01 Q1018 RMK 1CU030 4AC070 A3007
Conditions at: RJOO (OSAKA INTL/ITAMI, JP) observed 0500 UTC 24 March 2019
Temperature: 12.0°C (54°F)
Dewpoint: 1.0°C (34°F) [RH = 47%]
Pressure (altimeter): 30.06 inches Hg (1018.0 mb)
Winds: from the WSW (250 degrees) at 8 MPH (7 knots; 3.6 m/s)
Visibility: 6 or more miles (10+ km)
Ceiling: at least 12,000 feet AGL
Clouds: few clouds at 3000 feet AGL
scattered clouds at 7000 feet AGL
Weather: no significant weather observed at this time

METAR text: RJOO 240400Z 29006KT 240V350 9999 FEW030 BKN060 11/M00 Q1019 RMK 1CU030 5SC060 A3010
Conditions at: RJOO (OSAKA INTL/ITAMI, JP) observed 0400 UTC 24 March 2019
Temperature: 11.0°C (52°F)
Dewpoint: 0.0°C (32°F) [RH = 47%]
Pressure (altimeter): 30.09 inches Hg (1019.0 mb)
Winds: from the WNW (290 degrees) at 7 MPH (6 knots; 3.1 m/s)
Visibility: 6 or more miles (10+ km)
Ceiling: 6000 feet AGL
Clouds: few clouds at 3000 feet AGL
broken clouds at 6000 feet AGL
Weather: no significant weather observed at this time

METAR text: RJOO 240300Z 26006KT 210V330 9999 FEW025 BKN050 10/M00 Q1019 RMK 1CU025 6SC050 A3011
Conditions at: RJOO (OSAKA INTL/ITAMI, JP) observed 0300 UTC 24 March 2019
Temperature: 10.0°C (50°F)
Dewpoint: 0.0°C (32°F) [RH = 50%]
Pressure (altimeter): 30.09 inches Hg (1019.0 mb)
Winds: from the W (260 degrees) at 7 MPH (6 knots; 3.1 m/s)
Visibility: 6 or more miles (10+ km)
Ceiling: 5000 feet AGL
Clouds: few clouds at 2500 feet AGL
broken clouds at 5000 feet AGL
Weather: no significant weather observed at this time

METAR text: RJOO 240200Z 28005KT 220V330 9999 FEW025 BKN050 10/M02 Q1020 RMK 1CU025 5SC050 A3012
Conditions at: RJOO (OSAKA INTL/ITAMI, JP) observed 0200 UTC 24 March 2019
Temperature: 10.0°C (50°F)
Dewpoint: -2.0°C (28°F) [RH = 43%]
Pressure (altimeter): 30.12 inches Hg (1020.0 mb)
Winds: from the W (280 degrees) at 6 MPH (5 knots; 2.6 m/s)
Visibility: 6 or more miles (10+ km)
Ceiling: 5000 feet AGL
Clouds: few clouds at 2500 feet AGL
broken clouds at 5000 feet AGL
Weather: no significant weather observed at this time

METAR text: RJOO 240100Z VRB04KT 9999 FEW025 BKN040 09/M00 Q1020 RMK 1CU025 5CU040 A3013
Conditions at: RJOO (OSAKA INTL/ITAMI, JP) observed 0100 UTC 24 March 2019
Temperature: 9.0°C (48°F)
Dewpoint: 0.0°C (32°F) [RH = 53%]
Pressure (altimeter): 30.12 inches Hg (1020.0 mb)
Winds: variable direction winds at 5 MPH (4 knots; 2.1 m/s)
Visibility: 6 or more miles (10+ km)
Ceiling: 4000 feet AGL
Clouds: few clouds at 2500 feet AGL
broken clouds at 4000 feet AGL
Weather: no significant weather observed at this time

METAR text: RJOO 240000Z VRB03KT 9999 FEW025 SCT035 08/00 Q1020 RMK 1CU025 3CU035 A3013
Conditions at: RJOO (OSAKA INTL/ITAMI, JP) observed 0000 UTC 24 March 2019
Temperature: 8.0°C (46°F)
Dewpoint: 0.0°C (32°F) [RH = 57%]
Pressure (altimeter): 30.12 inches Hg (1020.0 mb)
Winds: variable direction winds at 3 MPH (3 knots; 1.5 m/s)
Visibility: 6 or more miles (10+ km)
Ceiling: at least 12,000 feet AGL
Clouds: few clouds at 2500 feet AGL
scattered clouds at 3500 feet AGL
Weather: no significant weather observed at this time

METAR text: RJOO 232300Z 00000KT 9999 FEW025 06/01 Q1020 RMK 1CU025 A3012
Conditions at: RJOO (OSAKA INTL/ITAMI, JP) observed 2300 UTC 23 March 2019
Temperature: 6.0°C (43°F)
Dewpoint: 1.0°C (34°F) [RH = 70%]
Pressure (altimeter): 30.12 inches Hg (1020.0 mb)
Winds: calm
Visibility: 6 or more miles (10+ km)
Ceiling: at least 12,000 feet AGL
Clouds: few clouds at 2500 feet AGL
Weather: no significant weather observed at this time

METAR text: RJOO 232200Z 34005KT 9999 FEW025 05/01 Q1019 RMK 1CU025 A3011
Conditions at: RJOO (OSAKA INTL/ITAMI, JP) observed 2200 UTC 23 March 2019
Temperature: 5.0°C (41°F)
Dewpoint: 1.0°C (34°F) [RH = 75%]
Pressure (altimeter): 30.09 inches Hg (1019.0 mb)
Winds: from the NNW (340 degrees) at 6 MPH (5 knots; 2.6 m/s)
Visibility: 6 or more miles (10+ km)
Ceiling: at least 12,000 feet AGL
Clouds: few clouds at 2500 feet AGL
Weather: no significant weather observed at this time

METAR text: RJOO 232100Z 32004KT 9999 FEW025 SCT050 04/01 Q1019 RMK 1CU025 3SC050 A3010
Conditions at: RJOO (OSAKA INTL/ITAMI, JP) observed 2100 UTC 23 March 2019
Temperature: 4.0°C (39°F)
Dewpoint: 1.0°C (34°F) [RH = 81%]
Pressure (altimeter): 30.09 inches Hg (1019.0 mb)
Winds: from the NW (320 degrees) at 5 MPH (4 knots; 2.1 m/s)
Visibility: 6 or more miles (10+ km)
Ceiling: at least 12,000 feet AGL
Clouds: few clouds at 2500 feet AGL
scattered clouds at 5000 feet AGL
Weather: no significant weather observed at this time

METAR text: RJOO 232000Z 00000KT 9999 FEW025 BKN040 04/01 Q1018 RMK 1CU025 5CU040 A3008
Conditions at: RJOO (OSAKA INTL/ITAMI, JP) observed 2000 UTC 23 March 2019
Temperature: 4.0°C (39°F)
Dewpoint: 1.0°C (34°F) [RH = 81%]
Pressure (altimeter): 30.06 inches Hg (1018.0 mb)
Winds: calm
Visibility: 6 or more miles (10+ km)
Ceiling: 4000 feet AGL
Clouds: few clouds at 2500 feet AGL
broken clouds at 4000 feet AGL
Weather: no significant weather observed at this time

METAR text: RJOO 231100Z 29003KT 250V320 9999 FEW025 BKN130 06/M01 Q1015 RMK 1CU025 5AC130 A3000
Conditions at: RJOO (OSAKA INTL/ITAMI, JP) observed 1100 UTC 23 March 2019
Temperature: 6.0°C (43°F)
Dewpoint: -1.0°C (30°F) [RH = 61%]
Pressure (altimeter): 29.97 inches Hg (1015.0 mb)
Winds: from the WNW (290 degrees) at 3 MPH (3 knots; 1.5 m/s)
Visibility: 6 or more miles (10+ km)
Ceiling: 13000 feet AGL
Clouds: few clouds at 2500 feet AGL
broken clouds at 13000 feet AGL
Weather: no significant weather observed at this time

METAR text: RJOO 231000Z 34009KT 300V030 9999 -SHRA FEW008 SCT025 BKN060 06/M03 Q1015 RMK 1ST008 4CU025 6SC060 A2998
Conditions at: RJOO (OSAKA INTL/ITAMI, JP) observed 1000 UTC 23 March 2019
Temperature: 6.0°C (43°F)
Dewpoint: -3.0°C (27°F) [RH = 52%]
Pressure (altimeter): 29.97 inches Hg (1015.0 mb)
Winds: from the NNW (340 degrees) at 10 MPH (9 knots; 4.6 m/s)
Visibility: 6 or more miles (10+ km)
Ceiling: 6000 feet AGL
Clouds: few clouds at 800 feet AGL
scattered clouds at 2500 feet AGL
broken clouds at 6000 feet AGL
Weather: -SHRA  (light rain showers)

METAR text: RJOO 230900Z 36012KT 9999 VCSH FEW020 BKN060 08/M05 Q1014 RMK 1CU020 5SC060 A2997
Conditions at: RJOO (OSAKA INTL/ITAMI, JP) observed 0900 UTC 23 March 2019
Temperature: 8.0°C (46°F)
Dewpoint: -5.0°C (23°F) [RH = 39%]
Pressure (altimeter): 29.94 inches Hg (1014.0 mb)
Winds: from the N (360 degrees) at 14 MPH (12 knots; 6.2 m/s)
Visibility: 6 or more miles (10+ km)
Ceiling: 6000 feet AGL
Clouds: few clouds at 2000 feet AGL
broken clouds at 6000 feet AGL
Weather: VCSH  (showers in vicinity)

METAR text: RJOO 230800Z 34011KT 9999 VCSH FEW020 SCT030 BKN060 09/M03 Q1014 RMK 1CU020 3CU030 6SC060 A2996
Conditions at: RJOO (OSAKA INTL/ITAMI, JP) observed 0800 UTC 23 March 2019
Temperature: 9.0°C (48°F)
Dewpoint: -3.0°C (27°F) [RH = 43%]
Pressure (altimeter): 29.94 inches Hg (1014.0 mb)
Winds: from the NNW (340 degrees) at 13 MPH (11 knots; 5.7 m/s)
Visibility: 6 or more miles (10+ km)
Ceiling: 6000 feet AGL
Clouds: few clouds at 2000 feet AGL
scattered clouds at 3000 feet AGL
broken clouds at 6000 feet AGL
Weather: VCSH  (showers in vicinity)

METAR text: RJOO 230700Z 36013KT 9999 VCSH FEW030 BKN060 09/M03 Q1013 RMK 1CU030 5SC060 A2994
Conditions at: RJOO (OSAKA INTL/ITAMI, JP) observed 0700 UTC 23 March 2019
Temperature: 9.0°C (48°F)
Dewpoint: -3.0°C (27°F) [RH = 43%]
Pressure (altimeter): 29.91 inches Hg (1013.0 mb)
Winds: from the N (360 degrees) at 15 MPH (13 knots; 6.7 m/s)
Visibility: 6 or more miles (10+ km)
Ceiling: 6000 feet AGL
Clouds: few clouds at 3000 feet AGL
broken clouds at 6000 feet AGL
Weather: VCSH  (showers in vicinity)

METAR text: RJOO 230600Z 35010KT 9999 FEW030 BKN060 09/M04 Q1013 RMK 1CU030 5SC060 A2993
Conditions at: RJOO (OSAKA INTL/ITAMI, JP) observed 0600 UTC 23 March 2019
Temperature: 9.0°C (48°F)
Dewpoint: -4.0°C (25°F) [RH = 40%]
Pressure (altimeter): 29.91 inches Hg (1013.0 mb)
Winds: from the N (350 degrees) at 12 MPH (10 knots; 5.1 m/s)
Visibility: 6 or more miles (10+ km)
Ceiling: 6000 feet AGL
Clouds: few clouds at 3000 feet AGL
broken clouds at 6000 feet AGL
Weather: no significant weather observed at this time

METAR text: RJOO 230500Z 01011KT 9999 FEW030 BKN060 10/M04 Q1013 RMK 1CU030 5SC060 A2994
Conditions at: RJOO (OSAKA INTL/ITAMI, JP) observed 0500 UTC 23 March 2019
Temperature: 10.0°C (50°F)
Dewpoint: -4.0°C (25°F) [RH = 37%]
Pressure (altimeter): 29.91 inches Hg (1013.0 mb)
Winds: from the N (10 degrees) at 13 MPH (11 knots; 5.7 m/s)
Visibility: 6 or more miles (10+ km)
Ceiling: 6000 feet AGL
Clouds: few clouds at 3000 feet AGL
broken clouds at 6000 feet AGL
Weather: no significant weather observed at this time

METAR text: RJOO 230448Z 03010KT 9999 FEW030 BKN060 10/M04 Q1014 RMK 1CU030 5SC060 A2994
Conditions at: RJOO (OSAKA INTL/ITAMI, JP) observed 0448 UTC 23 March 2019
Temperature: 10.0°C (50°F)
Dewpoint: -4.0°C (25°F) [RH = 37%]
Pressure (altimeter): 29.94 inches Hg (1014.0 mb)
Winds: from the NNE (30 degrees) at 12 MPH (10 knots; 5.1 m/s)
Visibility: 6 or more miles (10+ km)
Ceiling: 6000 feet AGL
Clouds: few clouds at 3000 feet AGL
broken clouds at 6000 feet AGL
Weather: no significant weather observed at this time

METAR text: RJOO 230404Z 30008KT 9999 FEW030 BKN060 BKN/// 11/M03 Q1014 RMK 1CU030 5SC060 A2996
Conditions at: RJOO (OSAKA INTL/ITAMI, JP) observed 0404 UTC 23 March 2019
Temperature: 11.0°C (52°F)
Dewpoint: -3.0°C (27°F) [RH = 37%]
Pressure (altimeter): 29.94 inches Hg (1014.0 mb)
Winds: from the WNW (300 degrees) at 9 MPH (8 knots; 4.1 m/s)
Visibility: 6 or more miles (10+ km)
Ceiling: 6000 feet AGL
Clouds: few clouds at 3000 feet AGL
broken clouds at 6000 feet AGL
Weather: no significant weather observed at this time

METAR text: RJOO 230400Z 36010KT 330V030 9999 FEW030 BKN060 BKN/// 10/M04 Q1014 RMK 1CU030 5SC060 A2996
Conditions at: RJOO (OSAKA INTL/ITAMI, JP) observed 0400 UTC 23 March 2019
Temperature: 10.0°C (50°F)
Dewpoint: -4.0°C (25°F) [RH = 37%]
Pressure (altimeter): 29.94 inches Hg (1014.0 mb)
Winds: from the N (360 degrees) at 12 MPH (10 knots; 5.1 m/s)
Visibility: 6 or more miles (10+ km)
Ceiling: 6000 feet AGL
Clouds: few clouds at 3000 feet AGL
broken clouds at 6000 feet AGL
Weather: no significant weather observed at this time

METAR text: RJOO 230300Z 36008KT 340V040 9999 FEW030 SCT060 BKN/// 11/M04 Q1015 RMK 1CU030 3SC060 A2998
Conditions at: RJOO (OSAKA INTL/ITAMI, JP) observed 0300 UTC 23 March 2019
Temperature: 11.0°C (52°F)
Dewpoint: -4.0°C (25°F) [RH = 35%]
Pressure (altimeter): 29.97 inches Hg (1015.0 mb)
Winds: from the N (360 degrees) at 9 MPH (8 knots; 4.1 m/s)
Visibility: 6 or more miles (10+ km)
Ceiling: at least 12,000 feet AGL
Clouds: few clouds at 3000 feet AGL
scattered clouds at 6000 feet AGL
Weather: no significant weather observed at this time

METAR text: RJOO 230200Z 32006KT 270V360 9999 FEW030 BKN/// 10/M01 Q1015 RMK 1CU030 A3000
Conditions at: RJOO (OSAKA INTL/ITAMI, JP) observed 0200 UTC 23 March 2019
Temperature: 10.0°C (50°F)
Dewpoint: -1.0°C (30°F) [RH = 46%]
Pressure (altimeter): 29.97 inches Hg (1015.0 mb)
Winds: from the NW (320 degrees) at 7 MPH (6 knots; 3.1 m/s)
Visibility: 6 or more miles (10+ km)
Ceiling: at least 12,000 feet AGL
Clouds: few clouds at 3000 feet AGL
Weather: no significant weather observed at this time

METAR text: RJOO 230100Z 32007KT 280V010 9999 FEW030 SCT045 BKN/// 09/M01 Q1016 RMK 1CU030 3CU045 A3003
Conditions at: RJOO (OSAKA INTL/ITAMI, JP) observed 0100 UTC 23 March 2019
Temperature: 9.0°C (48°F)
Dewpoint: -1.0°C (30°F) [RH = 49%]
Pressure (altimeter): 30.00 inches Hg (1016.0 mb)
Winds: from the NW (320 degrees) at 8 MPH (7 knots; 3.6 m/s)
Visibility: 6 or more miles (10+ km)
Ceiling: at least 12,000 feet AGL
Clouds: few clouds at 3000 feet AGL
scattered clouds at 4500 feet AGL
Weather: no significant weather observed at this time

METAR text: RJOO 230000Z 31007KT 280V340 9999 FEW030 BKN/// 08/M01 Q1017
Conditions at: RJOO (OSAKA INTL/ITAMI, JP) observed 0000 UTC 23 March 2019
Temperature: 8.0°C (46°F)
Dewpoint: -1.0°C (30°F) [RH = 53%]
Pressure (altimeter): 30.03 inches Hg (1017.0 mb)
Winds: from the NW (310 degrees) at 8 MPH (7 knots; 3.6 m/s)
Visibility: 6 or more miles (10+ km)
Ceiling: at least 12,000 feet AGL
Clouds: few clouds at 3000 feet AGL
Weather: no significant weather observed at this time

METAR text: RJOO 222300Z 34007KT 9999 FEW025 BKN050 BKN/// 07/M02 Q1016 RMK 1CU025 5SC050 A3003
Conditions at: RJOO (OSAKA INTL/ITAMI, JP) observed 2300 UTC 22 March 2019
Temperature: 7.0°C (45°F)
Dewpoint: -2.0°C (28°F) [RH = 53%]
Pressure (altimeter): 30.00 inches Hg (1016.0 mb)
Winds: from the NNW (340 degrees) at 8 MPH (7 knots; 3.6 m/s)
Visibility: 6 or more miles (10+ km)
Ceiling: 5000 feet AGL
Clouds: few clouds at 2500 feet AGL
broken clouds at 5000 feet AGL
Weather: no significant weather observed at this time

METAR text: RJOO 222200Z 30003KT 9999 FEW025 BKN/// 07/M01 Q1016 RMK 1CU025 A3003
Conditions at: RJOO (OSAKA INTL/ITAMI, JP) observed 2200 UTC 22 March 2019
Temperature: 7.0°C (45°F)
Dewpoint: -1.0°C (30°F) [RH = 57%]
Pressure (altimeter): 30.00 inches Hg (1016.0 mb)
Winds: from the WNW (300 degrees) at 3 MPH (3 knots; 1.5 m/s)
Visibility: 6 or more miles (10+ km)
Ceiling: at least 12,000 feet AGL
Clouds: few clouds at 2500 feet AGL
Weather: no significant weather observed at this time

Forecast for: RJOO (OSAKA INTL/ITAMI, JP)
Text: TAF RJOO 240512Z 2406/2512 24005KT 9999 FEW025 SCT045
Forecast period: 0600 to 2100 UTC 24 March 2019
Forecast type: FROM: standard forecast or significant change
Winds: from the WSW (240 degrees) at 6 MPH (5 knots; 2.6 m/s)
Visibility: 6 or more miles 10+ km)
Ceiling: at least 12,000 feet AGL
Clouds: few clouds at 2500 feet AGL
scattered clouds at 4500 feet AGL
Weather: no significant weather forecast for this period
Text: BECMG 2421/2500 22008KT
Forecast period: 2100 UTC 24 March 2019 to 0900 UTC 25 March 2019
Forecast type: BECOMING: Conditions expected to become as follows by 0000 UTC 25 March 2019
Winds: from the SW (220 degrees) at 9 MPH (8 knots; 4.1 m/s)
Visibility: 6 or more miles 10+ km)
Ceiling: at least 12,000 feet AGL
Clouds: few clouds at 2500 feet AGL
scattered clouds at 4500 feet AGL
Weather: no significant weather forecast for this period
Text: BECMG 2509/2512 32005KT
Forecast period: 0900 to 1200 UTC 25 March 2019
Forecast type: BECOMING: Conditions expected to become as follows by 1200 UTC 25 March 2019
Winds: from the NW (320 degrees) at 6 MPH (5 knots; 2.6 m/s)
Visibility: 6 or more miles 10+ km)
Ceiling: at least 12,000 feet AGL
Clouds: few clouds at 2500 feet AGL
scattered clouds at 4500 feet AGL
Weather: no significant weather forecast for this period